createdAt,value
2022-08-26T00:01:18.698Z,18.45
2022-08-26T00:03:56.384Z,18.77
2022-08-26T00:06:23.016Z,18.90
2022-08-26T00:08:49.481Z,19.35
2022-08-26T00:11:15.947Z,19.65
2022-08-26T00:13:54.481Z,20.75
2022-08-26T00:16:21.582Z,21.65
2022-08-26T00:18:48.099Z,20.80
2022-08-26T00:21:14.534Z,22.33
2022-08-26T00:23:41.005Z,21.92
2022-08-26T00:26:08.323Z,23.05
2022-08-26T00:28:35.444Z,22.98
2022-08-26T00:31:02.561Z,21.75
2022-08-26T00:33:29.956Z,23.83
2022-08-26T00:35:56.914Z,23.20
2022-08-26T00:38:23.865Z,23.77
2022-08-26T00:40:55.641Z,23.25
2022-08-26T00:43:24.425Z,25.05
2022-08-26T00:46:14.182Z,23.92
2022-08-26T00:48:43.921Z,22.40
2022-08-26T00:51:21.240Z,22.02
2022-08-26T00:53:54.377Z,22.67
2022-08-26T00:56:31.220Z,20.98
2022-08-26T00:59:00.933Z,21.77
2022-08-26T01:01:28.341Z,22.80
2022-08-26T01:03:59.072Z,23.98
2022-08-26T01:06:27.281Z,22.80
2022-08-26T01:08:54.424Z,22.83
2022-08-26T01:11:20.935Z,23.73
2022-08-26T01:13:49.144Z,21.70
2022-08-26T01:16:16.899Z,25.15
2022-08-26T01:18:44.641Z,23.27
2022-08-26T01:21:27.602Z,21.17
2022-08-26T01:23:57.912Z,23.42
2022-08-26T01:26:33.294Z,22.85
2022-08-26T01:29:02.925Z,25.25
2022-08-26T01:31:37.377Z,24.08
2022-08-26T01:34:14.620Z,24.25
2022-08-26T01:36:41.636Z,24.58
2022-08-26T01:39:09.219Z,24.70
2022-08-26T01:41:39.615Z,21.85
2022-08-26T01:44:09.693Z,23.23
2022-08-26T01:46:37.179Z,25.40
2022-08-26T01:49:06.748Z,22.33
2022-08-26T01:54:06.170Z,22.35
2022-08-26T01:56:36.660Z,23.38
2022-08-26T02:01:32.254Z,22.23
2022-08-26T02:04:29.272Z,22.85
2022-08-26T02:06:57.348Z,22.95
2022-08-26T02:09:25.742Z,26.35
2022-08-26T02:11:54.052Z,24.08
2022-08-26T02:14:30.344Z,25.65
2022-08-26T02:16:56.909Z,26.13
2022-08-26T02:19:29.203Z,24.45
2022-08-26T02:21:58.522Z,22.98
2022-08-26T02:24:28.638Z,30.50
2022-08-26T02:26:57.541Z,27.65
2022-08-26T02:29:32.828Z,23.42
2022-08-26T02:31:59.311Z,21.95
2022-08-26T02:34:32.681Z,25.33
2022-08-26T02:37:01.150Z,23.17
2022-08-26T02:39:29.435Z,24.90
2022-08-26T02:41:57.517Z,23.38
2022-08-26T02:44:24.006Z,21.73
2022-08-26T02:46:52.760Z,24.02
2022-08-26T02:49:21.490Z,23.50
2022-08-26T02:51:49.440Z,22.75
2022-08-26T02:54:17.219Z,23.65
2022-08-26T02:56:44.420Z,23.40
2022-08-26T02:59:12.576Z,22.90
2022-08-26T03:01:40.421Z,25.45
2022-08-26T03:04:09.879Z,23.70
2022-08-26T03:06:37.878Z,23.83
2022-08-26T03:09:05.523Z,25.17
2022-08-26T03:11:33.268Z,24.88
2022-08-26T03:14:00.599Z,24.00
2022-08-26T03:16:37.231Z,22.52
2022-08-26T03:19:06.505Z,23.75
2022-08-26T03:21:35.533Z,24.05
2022-08-26T03:24:03.304Z,23.60
2022-08-26T03:26:30.499Z,24.05
2022-08-26T03:29:15.663Z,24.58
2022-08-26T03:31:43.369Z,24.08
2022-08-26T03:34:09.761Z,25.33
2022-08-26T03:36:38.612Z,23.20
2022-08-26T03:39:06.285Z,23.73
2022-08-26T03:41:36.594Z,26.35
2022-08-26T03:44:05.676Z,25.33
2022-08-26T03:46:33.657Z,25.83
2022-08-26T03:49:02.067Z,26.20
2022-08-26T03:51:29.047Z,26.35
2022-08-26T03:53:55.966Z,25.67
2022-08-26T03:56:23.615Z,26.13
2022-08-26T03:58:50.906Z,26.50
2022-08-26T04:01:17.810Z,25.73
2022-08-26T04:04:00.392Z,25.30
2022-08-26T04:06:44.963Z,25.52
2022-08-26T04:09:18.477Z,25.77
2022-08-26T04:11:47.494Z,26.38
2022-08-26T04:14:20.491Z,27.70
2022-08-26T04:16:47.592Z,23.60
2022-08-26T04:19:15.644Z,24.85
2022-08-26T04:21:42.857Z,25.77
2022-08-26T04:24:12.086Z,26.33
2022-08-26T04:26:42.756Z,26.45
2022-08-26T04:29:23.668Z,24.75
2022-08-26T04:31:50.422Z,25.47
2022-08-26T04:34:23.469Z,25.75
2022-08-26T04:36:51.330Z,24.55
2022-08-26T04:39:20.169Z,25.67
2022-08-26T04:41:48.528Z,26.13
2022-08-26T04:44:16.019Z,22.70
2022-08-26T04:46:44.198Z,26.23
2022-08-26T04:49:11.789Z,26.55
2022-08-26T04:51:39.049Z,25.02
2022-08-26T04:54:07.045Z,26.67
2022-08-26T04:56:36.958Z,26.73
2022-08-26T04:59:06.494Z,28.70
2022-08-26T05:01:34.936Z,27.38
2022-08-26T05:04:08.177Z,26.23
2022-08-26T05:06:36.974Z,26.33
2022-08-26T05:09:04.070Z,26.90
2022-08-26T05:11:30.894Z,28.13
2022-08-26T05:14:01.634Z,31.40
2022-08-26T05:16:30.311Z,28.80
2022-08-26T05:18:57.446Z,27.33
2022-08-26T05:21:27.072Z,29.83
2022-08-26T05:23:54.914Z,28.15
2022-08-26T05:26:25.794Z,27.95
2022-08-26T05:28:54.602Z,30.00
2022-08-26T05:31:31.250Z,28.05
2022-08-26T05:33:58.873Z,28.33
2022-08-26T05:36:29.565Z,28.60
2022-08-26T05:38:57.742Z,25.90
2022-08-26T05:41:36.195Z,27.13
2022-08-26T05:44:05.872Z,27.40
2022-08-26T05:46:33.501Z,28.50
2022-08-26T05:49:01.539Z,28.23
2022-08-26T05:51:30.450Z,28.80
2022-08-26T05:53:57.912Z,26.08
2022-08-26T05:56:26.065Z,29.08
2022-08-26T05:58:52.612Z,29.02
2022-08-26T06:01:21.897Z,28.38
2022-08-26T06:03:51.998Z,26.98
2022-08-26T06:06:27.584Z,30.20
2022-08-26T06:08:59.258Z,28.15
2022-08-26T06:11:27.580Z,27.40
2022-08-26T06:13:57.969Z,28.42
2022-08-26T06:16:29.024Z,26.15
2022-08-26T06:18:55.882Z,27.63
2022-08-26T06:21:27.036Z,23.75
2022-08-26T06:24:16.220Z,21.98
2022-08-26T06:26:50.661Z,24.13
2022-08-26T06:29:24.717Z,22.02
2022-08-26T06:31:52.630Z,19.80
2022-08-26T06:34:19.569Z,23.98
2022-08-26T06:36:47.271Z,19.48
2022-08-26T06:39:15.569Z,21.75
2022-08-26T06:41:44.991Z,19.95
2022-08-26T06:44:13.728Z,23.67
2022-08-26T06:46:41.040Z,22.15
2022-08-26T06:49:08.210Z,20.05
2022-08-26T06:51:36.861Z,20.63
2022-08-26T06:54:05.477Z,18.63
2022-08-26T06:56:40.398Z,19.48
2022-08-26T06:59:08.230Z,20.77
2022-08-26T07:01:38.496Z,16.70
2022-08-26T07:04:10.727Z,19.25
2022-08-26T07:06:40.576Z,18.13
2022-08-26T07:09:09.719Z,18.88
2022-08-26T07:11:38.103Z,16.42
2022-08-26T07:14:04.982Z,13.60
2022-08-26T07:16:31.765Z,17.55
2022-08-26T07:18:59.465Z,14.88
2022-08-26T07:21:27.988Z,15.52
2022-08-26T07:24:00.071Z,14.60
2022-08-26T07:26:30.637Z,11.13
2022-08-26T07:28:58.494Z,14.35
2022-08-26T07:31:28.381Z,12.93
2022-08-26T07:33:56.741Z,14.05
2022-08-26T07:36:24.377Z,14.30
2022-08-26T07:38:52.434Z,14.35
2022-08-26T07:41:22.716Z,15.25
2022-08-26T07:43:49.605Z,16.30
2022-08-26T07:46:20.854Z,14.38
2022-08-26T07:48:54.058Z,15.50
2022-08-26T07:51:22.081Z,15.40
2022-08-26T07:53:52.339Z,12.75
2022-08-26T07:58:48.978Z,13.40
2022-08-26T08:01:18.701Z,12.48
2022-08-26T08:03:45.355Z,15.27
2022-08-26T08:06:12.400Z,14.50
2022-08-26T08:08:41.309Z,18.05
2022-08-26T08:11:07.952Z,15.65
2022-08-26T08:13:37.366Z,14.88
2022-08-26T08:16:04.968Z,10.20
2022-08-26T08:18:31.647Z,15.05
2022-08-26T08:21:21.330Z,16.23
2022-08-26T08:23:46.927Z,16.35
2022-08-26T08:26:14.090Z,15.48
2022-08-26T08:28:40.764Z,14.18
2022-08-26T08:31:08.263Z,12.20
2022-08-26T08:33:35.238Z,13.55
2022-08-26T08:36:02.185Z,12.80
2022-08-26T08:38:29.510Z,14.63
2022-08-26T08:40:56.031Z,13.70
2022-08-26T08:43:44.412Z,13.20
2022-08-26T08:46:14.024Z,11.55
2022-08-26T08:48:48.338Z,13.10
2022-08-26T08:51:35.961Z,11.85
2022-08-26T08:54:02.722Z,11.30
2022-08-26T08:56:33.643Z,11.82
2022-08-26T08:59:19.587Z,11.40
2022-08-26T09:01:59.033Z,11.80
2022-08-26T09:04:45.130Z,12.10
2022-08-26T09:07:25.657Z,12.48
2022-08-26T09:10:00.808Z,11.70
2022-08-26T09:12:32.827Z,11.68
2022-08-26T09:15:28.563Z,11.55
2022-08-26T09:18:11.062Z,9.73
2022-08-26T09:20:58.134Z,12.63
2022-08-26T09:23:25.419Z,12.50
2022-08-26T09:26:02.958Z,11.65
2022-08-26T09:28:31.085Z,10.00
2022-08-26T09:31:11.437Z,8.27
2022-08-26T09:33:40.185Z,10.43
2022-08-26T09:36:37.785Z,10.52
2022-08-26T09:39:24.092Z,12.52
2022-08-26T09:42:12.764Z,13.75
2022-08-26T09:44:52.658Z,9.80
2022-08-26T09:47:30.220Z,11.02
2022-08-26T09:50:30.740Z,10.75
2022-08-26T09:53:12.658Z,9.95
2022-08-26T09:55:42.689Z,9.90
2022-08-26T09:58:31.024Z,10.67
2022-08-26T10:03:34.332Z,10.20
2022-08-26T10:06:04.955Z,9.98
2022-08-26T10:08:42.362Z,10.23
2022-08-26T10:11:38.306Z,11.38
2022-08-26T10:14:27.883Z,10.05
2022-08-26T10:17:00.812Z,11.20
2022-08-26T10:19:55.932Z,9.43
2022-08-26T10:22:46.893Z,7.32
2022-08-26T10:25:20.178Z,9.45
2022-08-26T10:28:05.623Z,8.77
2022-08-26T10:30:38.557Z,9.05
2022-08-26T10:33:12.345Z,8.45
2022-08-26T10:35:48.529Z,6.55
2022-08-26T10:38:22.525Z,7.38
2022-08-26T10:40:55.061Z,7.65
2022-08-26T10:43:29.623Z,7.10
2022-08-26T10:46:11.982Z,7.97
2022-08-26T10:48:45.566Z,8.07
2022-08-26T10:51:15.114Z,7.68
2022-08-26T10:53:55.797Z,7.03
2022-08-26T10:56:28.477Z,7.30
2022-08-26T10:59:18.025Z,6.63
2022-08-26T11:01:57.599Z,6.00
2022-08-26T11:04:48.352Z,5.72
2022-08-26T11:07:57.179Z,5.30
2022-08-26T11:10:23.634Z,5.38
2022-08-26T11:13:04.969Z,6.38
2022-08-26T11:15:31.373Z,5.78
2022-08-26T11:18:37.359Z,8.52
2022-08-26T11:21:40.133Z,6.68
2022-08-26T11:24:08.153Z,5.88
2022-08-26T11:26:55.725Z,5.05
2022-08-26T11:29:56.821Z,4.50
2022-08-26T11:32:26.875Z,4.30
2022-08-26T11:34:59.306Z,4.07
2022-08-26T11:37:35.072Z,3.45
2022-08-26T11:40:06.429Z,4.03
2022-08-26T11:42:37.240Z,5.13
2022-08-26T11:45:19.332Z,5.15
2022-08-26T11:47:46.798Z,4.40
2022-08-26T11:50:19.220Z,5.05
2022-08-26T11:53:07.686Z,5.30
2022-08-26T11:55:41.751Z,5.10
2022-08-26T11:58:12.751Z,4.78
2022-08-26T12:00:57.354Z,5.13
2022-08-26T12:03:32.240Z,4.65
2022-08-26T12:05:59.173Z,5.63
2022-08-26T12:08:28.503Z,4.22
2022-08-26T12:11:13.699Z,4.13
2022-08-26T12:13:42.170Z,4.90
2022-08-26T12:16:09.509Z,4.40
2022-08-26T12:18:38.884Z,4.82
2022-08-26T12:21:34.853Z,4.38
2022-08-26T12:24:03.979Z,4.93
2022-08-26T12:26:35.344Z,4.82
2022-08-26T12:29:10.033Z,4.38
2022-08-26T12:31:47.887Z,4.72
2022-08-26T12:34:18.114Z,4.13
2022-08-26T12:36:49.585Z,4.22
2022-08-26T12:39:29.747Z,4.63
2022-08-26T12:41:59.057Z,3.60
2022-08-26T12:44:32.429Z,4.30
2022-08-26T12:47:15.857Z,4.55
2022-08-26T12:50:09.544Z,4.85
2022-08-26T12:52:51.432Z,3.88
2022-08-26T12:55:22.791Z,5.30
2022-08-26T12:57:49.339Z,4.45
2022-08-26T13:00:34.920Z,4.50
2022-08-26T13:03:02.536Z,5.15
2022-08-26T13:05:33.248Z,5.97
2022-08-26T13:08:24.998Z,5.05
2022-08-26T13:11:04.604Z,5.43
2022-08-26T13:13:31.289Z,4.20
2022-08-26T13:15:57.775Z,4.68
2022-08-26T13:18:25.531Z,4.70
2022-08-26T13:20:52.612Z,5.45
2022-08-26T13:23:21.361Z,5.05
2022-08-26T13:25:47.784Z,4.10
2022-08-26T13:28:14.304Z,4.22
2022-08-26T13:30:44.287Z,4.13
2022-08-26T13:33:12.286Z,4.43
2022-08-26T13:35:41.107Z,4.75
2022-08-26T13:38:14.545Z,4.65
2022-08-26T13:40:59.680Z,4.82
2022-08-26T13:43:27.622Z,4.00
2022-08-26T13:45:54.571Z,4.40
2022-08-26T13:48:23.315Z,4.60
2022-08-26T13:50:50.633Z,5.05
2022-08-26T13:53:18.654Z,5.43
2022-08-26T13:55:45.751Z,4.97
2022-08-26T13:58:13.535Z,4.45
2022-08-26T14:00:41.289Z,4.88
2022-08-26T14:03:12.700Z,4.50
2022-08-26T14:05:40.508Z,4.30
2022-08-26T14:08:07.565Z,4.22
2022-08-26T14:10:34.252Z,5.28
2022-08-26T14:13:00.850Z,5.88
2022-08-26T14:15:27.961Z,5.45
2022-08-26T14:17:55.896Z,5.57
2022-08-26T14:20:29.526Z,5.28
2022-08-26T14:23:14.132Z,5.20
2022-08-26T14:25:41.038Z,4.78
2022-08-26T14:28:07.544Z,4.47
2022-08-26T14:30:34.476Z,5.07
2022-08-26T14:33:00.953Z,6.13
2022-08-26T14:35:30.330Z,4.53
2022-08-26T14:37:57.325Z,5.18
2022-08-26T14:40:31.179Z,4.65
2022-08-26T14:43:00.141Z,5.10
2022-08-26T14:45:27.746Z,5.70
2022-08-26T14:47:56.596Z,4.20
2022-08-26T14:50:26.068Z,4.90
2022-08-26T14:53:11.239Z,4.22
2022-08-26T14:55:42.236Z,5.18
2022-08-26T14:58:09.989Z,4.35
2022-08-26T15:00:38.153Z,4.07
2022-08-26T15:03:05.783Z,3.80
2022-08-26T15:05:33.273Z,4.60
2022-08-26T15:08:00.356Z,5.15
2022-08-26T15:10:26.847Z,4.18
2022-08-26T15:12:53.319Z,4.28
2022-08-26T15:15:19.898Z,4.35
2022-08-26T15:17:46.337Z,5.88
2022-08-26T15:20:15.846Z,4.13
2022-08-26T15:22:43.137Z,4.40
2022-08-26T15:25:10.723Z,4.57
2022-08-26T15:27:38.170Z,4.90
2022-08-26T15:30:10.658Z,4.25
2022-08-26T15:32:37.164Z,4.18
2022-08-26T15:35:08.893Z,5.32
2022-08-26T15:37:36.178Z,4.90
2022-08-26T15:40:03.748Z,4.15
2022-08-26T15:42:30.301Z,5.07
2022-08-26T15:44:56.806Z,4.15
2022-08-26T15:47:23.746Z,4.80
2022-08-26T15:49:50.220Z,4.63
2022-08-26T15:52:16.758Z,5.32
2022-08-26T15:54:43.215Z,4.57
2022-08-26T15:57:12.360Z,4.68
2022-08-26T15:59:40.142Z,5.43
2022-08-26T16:02:07.405Z,5.03
2022-08-26T16:04:34.021Z,5.93
2022-08-26T16:07:00.847Z,4.82
2022-08-26T16:09:28.682Z,4.07
2022-08-26T16:11:56.223Z,4.80
2022-08-26T16:14:23.837Z,4.18
2022-08-26T16:16:50.582Z,4.20
2022-08-26T16:19:17.805Z,4.60
2022-08-26T16:21:44.836Z,4.55
2022-08-26T16:24:11.882Z,5.25
2022-08-26T16:26:40.399Z,4.20
2022-08-26T16:29:10.311Z,3.72
2022-08-26T16:31:38.216Z,3.17
2022-08-26T16:34:06.324Z,4.45
2022-08-26T16:36:34.074Z,3.42
2022-08-26T16:39:01.057Z,3.03
2022-08-26T16:41:30.428Z,3.47
2022-08-26T16:43:57.264Z,3.77
2022-08-26T16:46:25.889Z,3.03
2022-08-26T16:48:57.180Z,2.67
2022-08-26T16:51:27.078Z,3.17
2022-08-26T16:53:55.463Z,3.03
2022-08-26T16:56:33.615Z,4.10
2022-08-26T16:59:02.083Z,2.97
2022-08-26T17:01:28.982Z,3.25
2022-08-26T17:03:55.519Z,2.92
2022-08-26T17:06:22.025Z,3.20
2022-08-26T17:08:48.507Z,2.80
2022-08-26T17:11:15.357Z,3.38
2022-08-26T17:13:42.042Z,3.47
2022-08-26T17:16:14.318Z,3.08
2022-08-26T17:18:41.401Z,3.13
2022-08-26T17:21:11.178Z,3.20
2022-08-26T17:23:38.747Z,4.18
2022-08-26T17:26:05.499Z,4.07
2022-08-26T17:28:32.449Z,3.83
2022-08-26T17:30:59.784Z,3.03
2022-08-26T17:33:26.999Z,3.15
2022-08-26T17:35:54.168Z,4.35
2022-08-26T17:38:21.608Z,3.20
2022-08-26T17:40:48.786Z,3.78
2022-08-26T17:43:15.469Z,3.85
2022-08-26T17:45:42.145Z,3.17
2022-08-26T17:48:10.492Z,4.05
2022-08-26T17:50:39.479Z,3.75
2022-08-26T17:53:05.918Z,5.40
2022-08-26T17:55:32.514Z,4.00
2022-08-26T17:57:59.831Z,4.60
2022-08-26T18:00:30.441Z,4.93
2022-08-26T18:02:57.044Z,4.30
2022-08-26T18:05:23.969Z,4.22
2022-08-26T18:07:51.417Z,4.75
2022-08-26T18:10:20.083Z,5.68
2022-08-26T18:12:46.896Z,5.05
2022-08-26T18:15:15.628Z,6.50
2022-08-26T18:17:42.537Z,8.02
2022-08-26T18:20:17.907Z,7.25
2022-08-26T18:22:45.804Z,6.85
2022-08-26T18:25:13.099Z,6.75
2022-08-26T18:27:40.269Z,5.80
2022-08-26T18:30:15.880Z,6.93
2022-08-26T18:32:42.992Z,7.18
2022-08-26T18:35:10.743Z,6.75
2022-08-26T18:37:37.495Z,7.03
2022-08-26T18:40:06.770Z,5.50
2022-08-26T18:42:33.761Z,6.18
2022-08-26T18:45:00.232Z,5.40
2022-08-26T18:47:26.772Z,5.65
2022-08-26T18:49:53.255Z,6.35
2022-08-26T18:52:19.698Z,6.30
2022-08-26T18:54:46.550Z,7.13
2022-08-26T18:57:13.015Z,8.40
2022-08-26T18:59:40.821Z,7.53
2022-08-26T19:02:08.531Z,8.48
2022-08-26T19:04:38.247Z,8.65
2022-08-26T19:07:05.607Z,7.80
2022-08-26T19:09:32.161Z,7.60
2022-08-26T19:11:59.197Z,6.85
2022-08-26T19:14:25.779Z,7.50
2022-08-26T19:16:52.967Z,7.45
2022-08-26T19:19:23.775Z,6.88
2022-08-26T19:21:51.597Z,6.93
2022-08-26T19:24:19.084Z,7.47
2022-08-26T19:26:49.473Z,7.95
2022-08-26T19:31:49.295Z,6.10
2022-08-26T19:34:20.259Z,7.30
2022-08-26T19:36:47.672Z,7.85
2022-08-26T19:39:14.296Z,9.10
2022-08-26T19:41:41.329Z,7.53
2022-08-26T19:44:34.344Z,7.40
2022-08-26T19:47:01.671Z,7.40
2022-08-26T19:49:28.166Z,6.88
2022-08-26T19:51:54.668Z,9.25
2022-08-26T19:54:22.685Z,7.20
2022-08-26T19:56:49.818Z,7.32
2022-08-26T19:59:17.370Z,8.43
2022-08-26T20:01:43.808Z,8.15
2022-08-26T20:04:10.280Z,8.32
2022-08-26T20:06:36.747Z,8.90
2022-08-26T20:09:03.851Z,9.77
2022-08-26T20:11:31.103Z,9.68
2022-08-26T20:13:57.604Z,8.60
2022-08-26T20:16:24.061Z,9.10
2022-08-26T20:19:09.057Z,9.23
2022-08-26T20:21:38.142Z,9.38
2022-08-26T20:24:15.396Z,8.52
2022-08-26T20:26:43.743Z,9.73
2022-08-26T20:29:12.152Z,11.68
2022-08-26T20:31:39.510Z,11.02
2022-08-26T20:34:06.614Z,11.40
2022-08-26T20:36:33.856Z,10.68
2022-08-26T20:39:00.643Z,11.15
2022-08-26T20:41:27.530Z,11.45
2022-08-26T20:43:54.643Z,12.57
2022-08-26T20:46:24.656Z,11.85
2022-08-26T20:51:19.124Z,13.05
2022-08-26T20:53:46.007Z,13.38
2022-08-26T20:56:14.847Z,11.80
2022-08-26T20:58:41.729Z,10.93
2022-08-26T21:01:08.968Z,11.68
2022-08-26T21:03:36.271Z,11.52
2022-08-26T21:06:03.739Z,11.77
2022-08-26T21:08:30.799Z,13.10
2022-08-26T21:11:00.024Z,14.07
2022-08-26T21:13:26.497Z,12.05
2022-08-26T21:15:56.585Z,12.88
2022-08-26T21:18:23.153Z,13.80
2022-08-26T21:20:50.187Z,14.93
2022-08-26T21:23:16.626Z,14.68
2022-08-26T21:25:43.194Z,14.15
2022-08-26T21:28:09.845Z,17.52
2022-08-26T21:30:40.749Z,15.68
2022-08-26T21:33:07.850Z,14.55
2022-08-26T21:35:34.660Z,15.02
2022-08-26T21:38:01.298Z,17.33
2022-08-26T21:40:28.059Z,14.43
2022-08-26T21:42:54.581Z,15.52
2022-08-26T21:45:21.091Z,16.63
2022-08-26T21:47:47.565Z,16.83
2022-08-26T21:50:14.022Z,17.98
2022-08-26T21:52:41.604Z,18.17
2022-08-26T21:55:11.717Z,15.23
2022-08-26T21:57:38.650Z,16.52
2022-08-26T22:00:09.357Z,15.50
2022-08-26T22:02:36.823Z,16.20
2022-08-26T22:05:04.037Z,13.02
2022-08-26T22:07:30.572Z,13.15
2022-08-26T22:09:57.005Z,13.85
2022-08-26T22:12:23.477Z,15.23
2022-08-26T22:14:49.949Z,14.65
2022-08-26T22:17:16.825Z,12.77
2022-08-26T22:19:46.456Z,13.60
2022-08-26T22:22:14.527Z,14.73
2022-08-26T22:24:43.144Z,13.55
2022-08-26T22:27:11.841Z,13.98
2022-08-26T22:29:38.489Z,14.95
2022-08-26T22:32:05.503Z,15.38
2022-08-26T22:34:33.893Z,15.35
2022-08-26T22:37:00.370Z,14.35
2022-08-26T22:39:26.847Z,15.85
2022-08-26T22:41:54.216Z,15.23
2022-08-26T22:44:22.328Z,15.60
2022-08-26T22:46:51.134Z,15.00
2022-08-26T22:49:17.749Z,16.13
2022-08-26T22:51:45.585Z,15.18
2022-08-26T22:54:13.097Z,16.58
2022-08-26T22:56:40.763Z,17.40
2022-08-26T22:59:08.088Z,17.10
2022-08-26T23:01:37.417Z,16.90
2022-08-26T23:04:06.210Z,17.57
2022-08-26T23:06:35.685Z,19.42
2022-08-26T23:09:02.147Z,22.02
2022-08-26T23:11:28.645Z,18.20
2022-08-26T23:13:55.164Z,18.83
2022-08-26T23:16:21.711Z,18.92
2022-08-26T23:18:48.241Z,20.60
2022-08-26T23:21:15.171Z,18.73
2022-08-26T23:23:41.740Z,18.10
2022-08-26T23:26:08.537Z,20.92
2022-08-26T23:28:37.723Z,19.95
2022-08-26T23:31:05.305Z,21.30
2022-08-26T23:33:50.168Z,21.75
2022-08-26T23:36:17.927Z,20.48
2022-08-26T23:38:45.279Z,20.58
2022-08-26T23:41:19.068Z,21.85
2022-08-26T23:43:45.545Z,23.48
2022-08-26T23:46:12.115Z,24.55
2022-08-26T23:48:38.720Z,22.08
2022-08-26T23:51:24.188Z,23.95
2022-08-26T23:53:51.423Z,21.13
2022-08-26T23:56:18.689Z,20.70
2022-08-26T23:58:47.092Z,21.77
